sensor_id;sensor_type;location;lat;lon;timestamp;P1;durP1;ratioP1;P2;durP2;ratioP2
70675;SDS011;59069;52.242;20.900;2023-03-21T00:02:01;37.33;;;14.38;;
70675;SDS011;59069;52.242;20.900;2023-03-21T00:04:27;35.57;;;14.17;;
70675;SDS011;59069;52.242;20.900;2023-03-21T00:06:53;33.75;;;14.23;;
70675;SDS011;59069;52.242;20.900;2023-03-21T00:09:19;35.97;;;14.50;;
70675;SDS011;59069;52.242;20.900;2023-03-21T00:11:45;32.13;;;14.15;;
70675;SDS011;59069;52.242;20.900;2023-03-21T00:14:11;33.55;;;13.23;;
70675;SDS011;59069;52.242;20.900;2023-03-21T00:16:44;35.03;;;14.13;;
70675;SDS011;59069;52.242;20.900;2023-03-21T00:19:14;37.03;;;13.70;;
70675;SDS011;59069;52.242;20.900;2023-03-21T00:21:41;36.38;;;14.32;;
70675;SDS011;59069;52.242;20.900;2023-03-21T00:24:07;35.20;;;13.73;;
70675;SDS011;59069;52.242;20.900;2023-03-21T00:26:33;32.17;;;13.73;;
70675;SDS011;59069;52.242;20.900;2023-03-21T00:28:59;36.13;;;14.20;;
70675;SDS011;59069;52.242;20.900;2023-03-21T00:31:25;33.95;;;13.60;;
70675;SDS011;59069;52.242;20.900;2023-03-21T00:33:51;37.72;;;14.68;;
70675;SDS011;59069;52.242;20.900;2023-03-21T00:36:17;33.03;;;14.67;;
70675;SDS011;59069;52.242;20.900;2023-03-21T00:38:42;40.83;;;15.20;;
70675;SDS011;59069;52.242;20.900;2023-03-21T00:41:10;36.20;;;14.00;;
70675;SDS011;59069;52.242;20.900;2023-03-21T00:43:38;37.63;;;14.85;;
70675;SDS011;59069;52.242;20.900;2023-03-21T00:46:04;33.80;;;14.95;;
70675;SDS011;59069;52.242;20.900;2023-03-21T00:48:30;33.87;;;13.90;;
70675;SDS011;59069;52.242;20.900;2023-03-21T00:50:56;35.97;;;14.55;;
70675;SDS011;59069;52.242;20.900;2023-03-21T00:53:23;34.65;;;14.32;;
70675;SDS011;59069;52.242;20.900;2023-03-21T00:55:49;34.08;;;14.10;;
70675;SDS011;59069;52.242;20.900;2023-03-21T00:58:15;39.27;;;15.07;;
70675;SDS011;59069;52.242;20.900;2023-03-21T01:00:41;36.33;;;14.32;;
70675;SDS011;59069;52.242;20.900;2023-03-21T01:03:09;34.80;;;14.35;;
70675;SDS011;59069;52.242;20.900;2023-03-21T01:05:38;35.92;;;14.77;;
70675;SDS011;59069;52.242;20.900;2023-03-21T01:08:24;33.63;;;13.93;;
70675;SDS011;59069;52.242;20.900;2023-03-21T01:10:52;35.38;;;14.63;;
70675;SDS011;59069;52.242;20.900;2023-03-21T01:13:20;35.90;;;14.20;;
70675;SDS011;59069;52.242;20.900;2023-03-21T01:15:48;35.72;;;14.82;;
70675;SDS011;59069;52.242;20.900;2023-03-21T01:18:21;36.03;;;14.05;;
70675;SDS011;59069;52.242;20.900;2023-03-21T01:20:51;33.47;;;13.53;;
70675;SDS011;59069;52.242;20.900;2023-03-21T01:23:17;36.53;;;15.02;;
70675;SDS011;59069;52.242;20.900;2023-03-21T01:25:43;40.63;;;15.45;;
70675;SDS011;59069;52.242;20.900;2023-03-21T01:28:08;34.30;;;13.83;;
70675;SDS011;59069;52.242;20.900;2023-03-21T01:30:34;37.03;;;15.27;;
70675;SDS011;59069;52.242;20.900;2023-03-21T01:33:00;32.90;;;13.67;;
70675;SDS011;59069;52.242;20.900;2023-03-21T01:35:26;32.13;;;13.63;;
70675;SDS011;59069;52.242;20.900;2023-03-21T01:37:51;35.00;;;13.40;;
70675;SDS011;59069;52.242;20.900;2023-03-21T01:40:19;36.87;;;14.80;;
70675;SDS011;59069;52.242;20.900;2023-03-21T01:42:47;31.58;;;13.63;;
70675;SDS011;59069;52.242;20.900;2023-03-21T01:48:16;33.05;;;13.20;;
70675;SDS011;59069;52.242;20.900;2023-03-21T01:50:42;35.03;;;13.55;;
70675;SDS011;59069;52.242;20.900;2023-03-21T01:53:08;32.07;;;13.33;;
70675;SDS011;59069;52.242;20.900;2023-03-21T01:55:34;29.10;;;13.40;;
70675;SDS011;59069;52.242;20.900;2023-03-21T01:58:01;35.33;;;13.88;;
70675;SDS011;59069;52.242;20.900;2023-03-21T02:00:28;31.70;;;13.27;;
70675;SDS011;59069;52.242;20.900;2023-03-21T02:02:55;31.58;;;13.38;;
70675;SDS011;59069;52.242;20.900;2023-03-21T02:08:20;32.25;;;12.98;;
70675;SDS011;59069;52.242;20.900;2023-03-21T02:10:47;35.05;;;13.77;;
70675;SDS011;59069;52.242;20.900;2023-03-21T02:13:14;29.73;;;12.77;;
70675;SDS011;59069;52.242;20.900;2023-03-21T02:15:41;28.30;;;11.90;;
70675;SDS011;59069;52.242;20.900;2023-03-21T02:21:08;30.40;;;11.88;;
70675;SDS011;59069;52.242;20.900;2023-03-21T02:34:53;25.95;;;10.15;;
70675;SDS011;59069;52.242;20.900;2023-03-21T02:37:25;27.92;;;10.68;;
70675;SDS011;59069;52.242;20.900;2023-03-21T02:40:02;31.08;;;11.70;;
70675;SDS011;59069;52.242;20.900;2023-03-21T02:47:45;27.33;;;11.85;;
70675;SDS011;59069;52.242;20.900;2023-03-21T02:50:26;33.45;;;12.35;;
70675;SDS011;59069;52.242;20.900;2023-03-21T02:52:59;30.50;;;12.73;;
70675;SDS011;59069;52.242;20.900;2023-03-21T02:55:28;32.25;;;13.60;;
70675;SDS011;59069;52.242;20.900;2023-03-21T02:57:57;31.47;;;11.83;;
70675;SDS011;59069;52.242;20.900;2023-03-21T03:00:27;31.63;;;12.70;;
70675;SDS011;59069;52.242;20.900;2023-03-21T03:02:56;29.88;;;12.82;;
70675;SDS011;59069;52.242;20.900;2023-03-21T03:05:26;30.42;;;12.20;;
70675;SDS011;59069;52.242;20.900;2023-03-21T03:10:43;28.50;;;12.70;;
70675;SDS011;59069;52.242;20.900;2023-03-21T03:13:34;29.55;;;12.70;;
70675;SDS011;59069;52.242;20.900;2023-03-21T03:19:27;26.75;;;11.30;;
70675;SDS011;59069;52.242;20.900;2023-03-21T03:21:58;24.70;;;10.90;;
70675;SDS011;59069;52.242;20.900;2023-03-21T03:27:06;24.63;;;11.10;;
70675;SDS011;59069;52.242;20.900;2023-03-21T03:29:36;26.90;;;11.27;;
70675;SDS011;59069;52.242;20.900;2023-03-21T03:32:11;27.13;;;11.38;;
70675;SDS011;59069;52.242;20.900;2023-03-21T03:34:45;27.25;;;11.00;;
70675;SDS011;59069;52.242;20.900;2023-03-21T03:37:16;27.40;;;11.23;;
70675;SDS011;59069;52.242;20.900;2023-03-21T03:39:50;25.35;;;11.00;;
70675;SDS011;59069;52.242;20.900;2023-03-21T03:42:29;25.73;;;11.00;;
70675;SDS011;59069;52.242;20.900;2023-03-21T03:44:59;27.75;;;11.40;;
70675;SDS011;59069;52.242;20.900;2023-03-21T03:47:30;29.25;;;12.00;;
70675;SDS011;59069;52.242;20.900;2023-03-21T03:50:06;25.20;;;11.00;;
70675;SDS011;59069;52.242;20.900;2023-03-21T03:52:45;27.83;;;11.02;;
70675;SDS011;59069;52.242;20.900;2023-03-21T03:55:16;22.48;;;10.07;;
70675;SDS011;59069;52.242;20.900;2023-03-21T03:57:46;29.02;;;12.20;;
70675;SDS011;59069;52.242;20.900;2023-03-21T04:00:12;25.60;;;10.77;;
70675;SDS011;59069;52.242;20.900;2023-03-21T04:02:41;23.67;;;10.57;;
70675;SDS011;59069;52.242;20.900;2023-03-21T04:05:07;26.42;;;11.35;;
70675;SDS011;59069;52.242;20.900;2023-03-21T04:07:33;25.35;;;11.35;;
70675;SDS011;59069;52.242;20.900;2023-03-21T04:09:58;28.20;;;11.77;;
70675;SDS011;59069;52.242;20.900;2023-03-21T04:12:24;27.13;;;11.13;;
70675;SDS011;59069;52.242;20.900;2023-03-21T04:14:50;26.90;;;11.45;;
70675;SDS011;59069;52.242;20.900;2023-03-21T04:17:16;25.23;;;11.60;;
70675;SDS011;59069;52.242;20.900;2023-03-21T04:19:42;24.48;;;11.35;;
70675;SDS011;59069;52.242;20.900;2023-03-21T04:22:09;23.10;;;11.00;;
70675;SDS011;59069;52.242;20.900;2023-03-21T04:24:36;24.38;;;10.07;;
70675;SDS011;59069;52.242;20.900;2023-03-21T04:27:03;24.88;;;10.85;;
70675;SDS011;59069;52.242;20.900;2023-03-21T04:29:30;23.67;;;10.15;;
70675;SDS011;59069;52.242;20.900;2023-03-21T04:31:56;22.00;;;9.85;;
70675;SDS011;59069;52.242;20.900;2023-03-21T04:34:21;24.30;;;9.80;;
70675;SDS011;59069;52.242;20.900;2023-03-21T04:36:50;22.30;;;8.95;;
70675;SDS011;59069;52.242;20.900;2023-03-21T04:39:17;20.98;;;9.25;;
70675;SDS011;59069;52.242;20.900;2023-03-21T04:41:44;23.47;;;9.30;;
70675;SDS011;59069;52.242;20.900;2023-03-21T04:44:10;25.23;;;10.02;;
70675;SDS011;59069;52.242;20.900;2023-03-21T04:46:37;25.50;;;9.70;;
70675;SDS011;59069;52.242;20.900;2023-03-21T04:49:03;21.07;;;9.23;;
70675;SDS011;59069;52.242;20.900;2023-03-21T04:51:31;22.67;;;9.90;;
70675;SDS011;59069;52.242;20.900;2023-03-21T04:53:57;22.88;;;8.98;;
70675;SDS011;59069;52.242;20.900;2023-03-21T04:56:24;22.90;;;9.80;;
70675;SDS011;59069;52.242;20.900;2023-03-21T04:58:56;22.95;;;9.73;;
70675;SDS011;59069;52.242;20.900;2023-03-21T05:01:23;22.33;;;10.15;;
70675;SDS011;59069;52.242;20.900;2023-03-21T05:03:49;20.23;;;9.43;;
70675;SDS011;59069;52.242;20.900;2023-03-21T05:06:15;23.20;;;9.88;;
70675;SDS011;59069;52.242;20.900;2023-03-21T05:08:42;21.40;;;9.20;;
70675;SDS011;59069;52.242;20.900;2023-03-21T05:11:07;22.80;;;9.85;;
70675;SDS011;59069;52.242;20.900;2023-03-21T05:13:33;25.37;;;9.63;;
70675;SDS011;59069;52.242;20.900;2023-03-21T05:15:58;23.83;;;9.25;;
70675;SDS011;59069;52.242;20.900;2023-03-21T05:18:24;21.53;;;9.77;;
70675;SDS011;59069;52.242;20.900;2023-03-21T05:20:51;21.80;;;10.23;;
70675;SDS011;59069;52.242;20.900;2023-03-21T05:23:20;22.43;;;9.23;;
70675;SDS011;59069;52.242;20.900;2023-03-21T05:25:47;23.63;;;8.80;;
70675;SDS011;59069;52.242;20.900;2023-03-21T05:28:13;22.65;;;9.52;;
70675;SDS011;59069;52.242;20.900;2023-03-21T05:30:42;22.42;;;9.77;;
70675;SDS011;59069;52.242;20.900;2023-03-21T05:33:09;24.52;;;10.82;;
70675;SDS011;59069;52.242;20.900;2023-03-21T05:35:35;22.43;;;9.57;;
70675;SDS011;59069;52.242;20.900;2023-03-21T05:38:00;21.07;;;9.70;;
70675;SDS011;59069;52.242;20.900;2023-03-21T05:40:26;22.05;;;9.13;;
70675;SDS011;59069;52.242;20.900;2023-03-21T05:42:51;20.70;;;9.20;;
70675;SDS011;59069;52.242;20.900;2023-03-21T05:45:17;23.73;;;8.90;;
70675;SDS011;59069;52.242;20.900;2023-03-21T05:47:42;22.60;;;9.75;;
70675;SDS011;59069;52.242;20.900;2023-03-21T05:50:08;24.67;;;9.90;;
70675;SDS011;59069;52.242;20.900;2023-03-21T05:52:35;25.75;;;10.82;;
70675;SDS011;59069;52.242;20.900;2023-03-21T05:55:01;23.83;;;9.93;;
70675;SDS011;59069;52.242;20.900;2023-03-21T05:57:26;25.33;;;11.10;;
70675;SDS011;59069;52.242;20.900;2023-03-21T05:59:53;23.88;;;10.35;;
70675;SDS011;59069;52.242;20.900;2023-03-21T06:02:18;23.23;;;9.90;;
70675;SDS011;59069;52.242;20.900;2023-03-21T06:04:44;24.25;;;10.98;;
70675;SDS011;59069;52.242;20.900;2023-03-21T06:07:10;24.93;;;9.97;;
70675;SDS011;59069;52.242;20.900;2023-03-21T06:09:35;26.00;;;11.23;;
70675;SDS011;59069;52.242;20.900;2023-03-21T06:12:01;26.63;;;11.40;;
70675;SDS011;59069;52.242;20.900;2023-03-21T06:14:27;25.10;;;10.18;;
70675;SDS011;59069;52.242;20.900;2023-03-21T06:16:52;29.33;;;11.77;;
70675;SDS011;59069;52.242;20.900;2023-03-21T06:19:18;23.27;;;10.03;;
70675;SDS011;59069;52.242;20.900;2023-03-21T06:21:45;23.73;;;9.77;;
70675;SDS011;59069;52.242;20.900;2023-03-21T06:24:10;22.80;;;9.82;;
70675;SDS011;59069;52.242;20.900;2023-03-21T06:26:36;26.73;;;9.43;;
70675;SDS011;59069;52.242;20.900;2023-03-21T06:29:02;20.55;;;8.73;;
70675;SDS011;59069;52.242;20.900;2023-03-21T06:31:27;21.43;;;9.43;;
70675;SDS011;59069;52.242;20.900;2023-03-21T06:33:53;16.80;;;7.67;;
70675;SDS011;59069;52.242;20.900;2023-03-21T06:36:19;18.17;;;7.95;;
70675;SDS011;59069;52.242;20.900;2023-03-21T06:38:45;16.55;;;7.47;;
70675;SDS011;59069;52.242;20.900;2023-03-21T06:41:11;20.30;;;7.68;;
70675;SDS011;59069;52.242;20.900;2023-03-21T06:43:36;16.70;;;7.57;;
70675;SDS011;59069;52.242;20.900;2023-03-21T06:46:02;18.27;;;8.15;;
70675;SDS011;59069;52.242;20.900;2023-03-21T06:48:29;17.88;;;7.28;;
70675;SDS011;59069;52.242;20.900;2023-03-21T06:50:56;16.63;;;7.70;;
70675;SDS011;59069;52.242;20.900;2023-03-21T06:53:22;17.83;;;7.67;;
70675;SDS011;59069;52.242;20.900;2023-03-21T06:55:51;14.85;;;6.57;;
70675;SDS011;59069;52.242;20.900;2023-03-21T06:58:17;16.38;;;6.93;;
70675;SDS011;59069;52.242;20.900;2023-03-21T07:00:43;18.87;;;7.80;;
70675;SDS011;59069;52.242;20.900;2023-03-21T07:03:09;16.02;;;7.40;;
70675;SDS011;59069;52.242;20.900;2023-03-21T07:05:37;14.93;;;6.90;;
70675;SDS011;59069;52.242;20.900;2023-03-21T07:08:04;18.30;;;7.38;;
70675;SDS011;59069;52.242;20.900;2023-03-21T07:10:30;17.53;;;6.67;;
70675;SDS011;59069;52.242;20.900;2023-03-21T07:12:57;15.65;;;7.00;;
70675;SDS011;59069;52.242;20.900;2023-03-21T07:15:23;19.90;;;6.85;;
70675;SDS011;59069;52.242;20.900;2023-03-21T07:17:50;14.70;;;6.10;;
70675;SDS011;59069;52.242;20.900;2023-03-21T07:20:15;15.30;;;6.70;;
70675;SDS011;59069;52.242;20.900;2023-03-21T07:22:41;16.23;;;6.90;;
70675;SDS011;59069;52.242;20.900;2023-03-21T07:25:07;14.30;;;6.40;;
70675;SDS011;59069;52.242;20.900;2023-03-21T07:27:34;14.68;;;6.05;;
70675;SDS011;59069;52.242;20.900;2023-03-21T07:30:01;13.90;;;6.10;;
70675;SDS011;59069;52.242;20.900;2023-03-21T07:32:30;14.73;;;5.90;;
70675;SDS011;59069;52.242;20.900;2023-03-21T07:34:58;13.35;;;5.78;;
70675;SDS011;59069;52.242;20.900;2023-03-21T07:37:24;14.60;;;5.60;;
70675;SDS011;59069;52.242;20.900;2023-03-21T07:39:50;14.65;;;6.05;;
70675;SDS011;59069;52.242;20.900;2023-03-21T07:42:16;14.40;;;6.03;;
70675;SDS011;59069;52.242;20.900;2023-03-21T07:44:42;14.63;;;6.13;;
70675;SDS011;59069;52.242;20.900;2023-03-21T07:47:07;14.00;;;5.57;;
70675;SDS011;59069;52.242;20.900;2023-03-21T07:49:33;12.60;;;5.47;;
70675;SDS011;59069;52.242;20.900;2023-03-21T07:51:58;18.00;;;5.87;;
70675;SDS011;59069;52.242;20.900;2023-03-21T07:54:26;13.70;;;5.93;;
70675;SDS011;59069;52.242;20.900;2023-03-21T07:56:53;13.05;;;5.93;;
70675;SDS011;59069;52.242;20.900;2023-03-21T07:59:19;13.82;;;6.10;;
70675;SDS011;59069;52.242;20.900;2023-03-21T08:01:45;13.17;;;5.80;;
70675;SDS011;59069;52.242;20.900;2023-03-21T08:04:10;12.40;;;5.93;;
70675;SDS011;59069;52.242;20.900;2023-03-21T08:06:36;14.80;;;7.23;;
70675;SDS011;59069;52.242;20.900;2023-03-21T08:09:01;12.90;;;5.97;;
70675;SDS011;59069;52.242;20.900;2023-03-21T08:11:27;11.70;;;5.53;;
70675;SDS011;59069;52.242;20.900;2023-03-21T08:13:55;14.93;;;6.13;;
70675;SDS011;59069;52.242;20.900;2023-03-21T08:16:22;13.43;;;5.60;;
70675;SDS011;59069;52.242;20.900;2023-03-21T08:18:47;12.00;;;5.00;;
70675;SDS011;59069;52.242;20.900;2023-03-21T08:21:13;13.90;;;5.22;;
70675;SDS011;59069;52.242;20.900;2023-03-21T08:23:38;12.20;;;5.23;;
70675;SDS011;59069;52.242;20.900;2023-03-21T08:26:04;11.30;;;4.72;;
70675;SDS011;59069;52.242;20.900;2023-03-21T08:28:30;10.63;;;4.20;;
70675;SDS011;59069;52.242;20.900;2023-03-21T08:30:56;11.55;;;4.55;;
70675;SDS011;59069;52.242;20.900;2023-03-21T08:33:21;11.67;;;4.67;;
70675;SDS011;59069;52.242;20.900;2023-03-21T08:35:47;12.00;;;5.00;;
70675;SDS011;59069;52.242;20.900;2023-03-21T08:38:12;11.23;;;4.72;;
70675;SDS011;59069;52.242;20.900;2023-03-21T08:40:38;11.40;;;4.87;;
70675;SDS011;59069;52.242;20.900;2023-03-21T08:43:04;10.52;;;4.85;;
70675;SDS011;59069;52.242;20.900;2023-03-21T08:45:30;11.77;;;4.95;;
70675;SDS011;59069;52.242;20.900;2023-03-21T08:47:55;11.63;;;5.00;;
70675;SDS011;59069;52.242;20.900;2023-03-21T08:50:21;12.20;;;4.90;;
70675;SDS011;59069;52.242;20.900;2023-03-21T08:52:50;12.98;;;5.20;;
70675;SDS011;59069;52.242;20.900;2023-03-21T08:55:16;11.52;;;5.15;;
70675;SDS011;59069;52.242;20.900;2023-03-21T08:57:43;11.23;;;4.87;;
70675;SDS011;59069;52.242;20.900;2023-03-21T09:00:12;13.52;;;5.80;;
70675;SDS011;59069;52.242;20.900;2023-03-21T09:02:42;11.95;;;5.28;;
70675;SDS011;59069;52.242;20.900;2023-03-21T09:05:09;11.73;;;5.35;;
70675;SDS011;59069;52.242;20.900;2023-03-21T09:07:39;12.85;;;5.30;;
70675;SDS011;59069;52.242;20.900;2023-03-21T09:10:06;10.00;;;4.60;;
70675;SDS011;59069;52.242;20.900;2023-03-21T09:12:38;10.45;;;4.47;;
70675;SDS011;59069;52.242;20.900;2023-03-21T09:15:05;11.73;;;4.57;;
70675;SDS011;59069;52.242;20.900;2023-03-21T09:17:32;9.93;;;4.20;;
70675;SDS011;59069;52.242;20.900;2023-03-21T09:19:58;10.50;;;4.33;;
70675;SDS011;59069;52.242;20.900;2023-03-21T09:22:27;12.57;;;4.50;;
70675;SDS011;59069;52.242;20.900;2023-03-21T09:24:52;12.05;;;5.22;;
70675;SDS011;59069;52.242;20.900;2023-03-21T09:27:18;10.50;;;4.53;;
70675;SDS011;59069;52.242;20.900;2023-03-21T09:29:48;11.95;;;5.22;;
70675;SDS011;59069;52.242;20.900;2023-03-21T09:32:14;13.15;;;5.50;;
70675;SDS011;59069;52.242;20.900;2023-03-21T09:34:42;10.57;;;4.30;;
70675;SDS011;59069;52.242;20.900;2023-03-21T09:37:08;10.40;;;4.60;;
70675;SDS011;59069;52.242;20.900;2023-03-21T09:39:37;12.63;;;4.77;;
70675;SDS011;59069;52.242;20.900;2023-03-21T09:47:31;11.93;;;5.40;;
70675;SDS011;59069;52.242;20.900;2023-03-21T09:50:13;11.95;;;5.25;;
70675;SDS011;59069;52.242;20.900;2023-03-21T09:52:54;12.40;;;5.00;;
70675;SDS011;59069;52.242;20.900;2023-03-21T09:55:31;12.75;;;5.35;;
70675;SDS011;59069;52.242;20.900;2023-03-21T10:00:50;12.77;;;5.05;;
70675;SDS011;59069;52.242;20.900;2023-03-21T10:03:24;12.40;;;4.32;;
70675;SDS011;59069;52.242;20.900;2023-03-21T10:05:56;10.80;;;4.43;;
70675;SDS011;59069;52.242;20.900;2023-03-21T10:08:26;12.63;;;4.80;;
70675;SDS011;59069;52.242;20.900;2023-03-21T10:11:06;10.57;;;4.78;;
70675;SDS011;59069;52.242;20.900;2023-03-21T10:16:24;10.70;;;4.75;;
70675;SDS011;59069;52.242;20.900;2023-03-21T10:18:54;12.17;;;4.57;;
70675;SDS011;59069;52.242;20.900;2023-03-21T10:21:21;10.40;;;3.88;;
70675;SDS011;59069;52.242;20.900;2023-03-21T10:23:52;11.32;;;3.95;;
70675;SDS011;59069;52.242;20.900;2023-03-21T10:26:21;10.80;;;4.35;;
70675;SDS011;59069;52.242;20.900;2023-03-21T10:28:50;10.13;;;3.90;;
70675;SDS011;59069;52.242;20.900;2023-03-21T10:31:18;10.40;;;3.80;;
70675;SDS011;59069;52.242;20.900;2023-03-21T10:33:49;9.30;;;3.10;;
70675;SDS011;59069;52.242;20.900;2023-03-21T10:36:16;9.10;;;3.50;;
70675;SDS011;59069;52.242;20.900;2023-03-21T10:38:51;9.45;;;3.60;;
70675;SDS011;59069;52.242;20.900;2023-03-21T10:41:21;9.47;;;3.13;;
70675;SDS011;59069;52.242;20.900;2023-03-21T10:44:02;8.02;;;2.90;;
70675;SDS011;59069;52.242;20.900;2023-03-21T10:46:33;10.05;;;3.60;;
70675;SDS011;59069;52.242;20.900;2023-03-21T10:48:59;8.70;;;3.60;;
70675;SDS011;59069;52.242;20.900;2023-03-21T10:51:35;9.37;;;3.70;;
70675;SDS011;59069;52.242;20.900;2023-03-21T10:54:05;10.50;;;3.97;;
70675;SDS011;59069;52.242;20.900;2023-03-21T10:56:39;10.63;;;3.85;;
70675;SDS011;59069;52.242;20.900;2023-03-21T10:59:15;9.57;;;3.90;;
70675;SDS011;59069;52.242;20.900;2023-03-21T11:01:48;9.20;;;4.00;;
70675;SDS011;59069;52.242;20.900;2023-03-21T11:04:19;10.40;;;4.32;;
70675;SDS011;59069;52.242;20.900;2023-03-21T11:06:57;8.60;;;3.65;;
70675;SDS011;59069;52.242;20.900;2023-03-21T11:12:27;8.90;;;2.88;;
70675;SDS011;59069;52.242;20.900;2023-03-21T11:14:55;9.77;;;3.50;;
70675;SDS011;59069;52.242;20.900;2023-03-21T11:17:28;14.18;;;6.20;;
70675;SDS011;59069;52.242;20.900;2023-03-21T11:19:57;9.88;;;4.07;;
70675;SDS011;59069;52.242;20.900;2023-03-21T11:22:24;10.15;;;3.55;;
70675;SDS011;59069;52.242;20.900;2023-03-21T11:24:56;9.63;;;3.80;;
70675;SDS011;59069;52.242;20.900;2023-03-21T11:27:24;7.47;;;3.13;;
70675;SDS011;59069;52.242;20.900;2023-03-21T11:29:53;9.38;;;3.55;;
70675;SDS011;59069;52.242;20.900;2023-03-21T11:34:56;9.80;;;3.65;;
70675;SDS011;59069;52.242;20.900;2023-03-21T11:37:29;7.85;;;3.58;;
70675;SDS011;59069;52.242;20.900;2023-03-21T11:40:12;8.57;;;3.40;;
70675;SDS011;59069;52.242;20.900;2023-03-21T11:42:43;8.45;;;3.17;;
70675;SDS011;59069;52.242;20.900;2023-03-21T11:47:39;9.15;;;4.18;;
70675;SDS011;59069;52.242;20.900;2023-03-21T11:50:13;9.97;;;4.60;;
70675;SDS011;59069;52.242;20.900;2023-03-21T11:52:42;8.77;;;4.45;;
70675;SDS011;59069;52.242;20.900;2023-03-21T11:55:34;9.88;;;4.53;;
70675;SDS011;59069;52.242;20.900;2023-03-21T12:06:18;8.13;;;3.20;;
70675;SDS011;59069;52.242;20.900;2023-03-21T12:09:07;8.95;;;3.67;;
70675;SDS011;59069;52.242;20.900;2023-03-21T12:12:30;7.88;;;3.42;;
70675;SDS011;59069;52.242;20.900;2023-03-21T12:15:04;7.67;;;2.97;;
70675;SDS011;59069;52.242;20.900;2023-03-21T12:25:40;9.02;;;3.58;;
70675;SDS011;59069;52.242;20.900;2023-03-21T12:31:00;8.55;;;3.45;;
70675;SDS011;59069;52.242;20.900;2023-03-21T12:39:40;9.52;;;3.80;;
70675;SDS011;59069;52.242;20.900;2023-03-21T12:44:42;7.53;;;3.00;;
70675;SDS011;59069;52.242;20.900;2023-03-21T12:49:47;8.13;;;3.42;;
70675;SDS011;59069;52.242;20.900;2023-03-21T12:52:36;8.43;;;3.10;;
70675;SDS011;59069;52.242;20.900;2023-03-21T13:00:31;7.28;;;2.67;;
70675;SDS011;59069;52.242;20.900;2023-03-21T13:03:03;7.00;;;2.67;;
70675;SDS011;59069;52.242;20.900;2023-03-21T13:06:18;7.90;;;3.05;;
70675;SDS011;59069;52.242;20.900;2023-03-21T13:11:06;7.95;;;3.00;;
70675;SDS011;59069;52.242;20.900;2023-03-21T13:13:43;6.45;;;2.60;;
70675;SDS011;59069;52.242;20.900;2023-03-21T13:16:20;7.15;;;2.50;;
70675;SDS011;59069;52.242;20.900;2023-03-21T13:21:17;7.57;;;2.93;;
70675;SDS011;59069;52.242;20.900;2023-03-21T13:24:16;7.03;;;2.65;;
70675;SDS011;59069;52.242;20.900;2023-03-21T13:26:40;7.28;;;3.00;;
70675;SDS011;59069;52.242;20.900;2023-03-21T13:32:14;8.18;;;2.42;;
70675;SDS011;59069;52.242;20.900;2023-03-21T13:34:54;6.55;;;2.53;;
70675;SDS011;59069;52.242;20.900;2023-03-21T13:37:21;6.40;;;2.53;;
70675;SDS011;59069;52.242;20.900;2023-03-21T13:39:49;7.03;;;2.60;;
70675;SDS011;59069;52.242;20.900;2023-03-21T13:42:22;6.47;;;2.53;;
70675;SDS011;59069;52.242;20.900;2023-03-21T13:44:54;6.60;;;2.53;;
70675;SDS011;59069;52.242;20.900;2023-03-21T13:47:41;6.57;;;2.55;;
70675;SDS011;59069;52.242;20.900;2023-03-21T13:55:27;6.40;;;3.07;;
70675;SDS011;59069;52.242;20.900;2023-03-21T14:04:09;6.30;;;3.20;;
70675;SDS011;59069;52.242;20.900;2023-03-21T14:09:03;7.17;;;3.10;;
70675;SDS011;59069;52.242;20.900;2023-03-21T14:11:30;7.25;;;3.30;;
70675;SDS011;59069;52.242;20.900;2023-03-21T14:13:58;8.18;;;3.50;;
70675;SDS011;59069;52.242;20.900;2023-03-21T14:16:25;7.13;;;3.85;;
70675;SDS011;59069;52.242;20.900;2023-03-21T14:18:58;6.72;;;3.65;;
70675;SDS011;59069;52.242;20.900;2023-03-21T14:21:28;6.57;;;3.00;;
70675;SDS011;59069;52.242;20.900;2023-03-21T14:24:00;7.10;;;3.53;;
70675;SDS011;59069;52.242;20.900;2023-03-21T14:26:26;6.75;;;3.80;;
70675;SDS011;59069;52.242;20.900;2023-03-21T14:28:56;6.70;;;3.30;;
70675;SDS011;59069;52.242;20.900;2023-03-21T14:31:22;6.90;;;3.47;;
70675;SDS011;59069;52.242;20.900;2023-03-21T14:33:51;8.03;;;3.70;;
70675;SDS011;59069;52.242;20.900;2023-03-21T14:36:25;7.00;;;3.78;;
70675;SDS011;59069;52.242;20.900;2023-03-21T14:38:54;6.85;;;3.33;;
70675;SDS011;59069;52.242;20.900;2023-03-21T14:41:21;7.53;;;3.92;;
70675;SDS011;59069;52.242;20.900;2023-03-21T14:46:51;6.38;;;3.15;;
70675;SDS011;59069;52.242;20.900;2023-03-21T14:49:20;6.68;;;3.20;;
70675;SDS011;59069;52.242;20.900;2023-03-21T14:51:49;6.55;;;3.30;;
70675;SDS011;59069;52.242;20.900;2023-03-21T14:54:16;6.55;;;3.08;;
70675;SDS011;59069;52.242;20.900;2023-03-21T14:56:43;7.80;;;3.10;;
70675;SDS011;59069;52.242;20.900;2023-03-21T14:59:13;6.43;;;2.95;;
70675;SDS011;59069;52.242;20.900;2023-03-21T15:01:41;7.32;;;3.10;;
70675;SDS011;59069;52.242;20.900;2023-03-21T15:04:10;6.93;;;3.33;;
70675;SDS011;59069;52.242;20.900;2023-03-21T15:06:48;8.15;;;3.38;;
70675;SDS011;59069;52.242;20.900;2023-03-21T15:09:15;7.00;;;3.00;;
70675;SDS011;59069;52.242;20.900;2023-03-21T15:11:48;8.13;;;3.42;;
70675;SDS011;59069;52.242;20.900;2023-03-21T15:14:15;7.85;;;3.42;;
70675;SDS011;59069;52.242;20.900;2023-03-21T15:16:42;7.50;;;3.38;;
70675;SDS011;59069;52.242;20.900;2023-03-21T15:19:09;6.93;;;3.03;;
70675;SDS011;59069;52.242;20.900;2023-03-21T15:21:42;7.53;;;3.42;;
70675;SDS011;59069;52.242;20.900;2023-03-21T15:24:19;7.95;;;3.38;;
70675;SDS011;59069;52.242;20.900;2023-03-21T15:27:11;8.45;;;3.53;;
70675;SDS011;59069;52.242;20.900;2023-03-21T15:29:40;9.10;;;3.45;;
70675;SDS011;59069;52.242;20.900;2023-03-21T15:32:11;8.07;;;3.50;;
70675;SDS011;59069;52.242;20.900;2023-03-21T15:34:40;8.18;;;3.30;;
70675;SDS011;59069;52.242;20.900;2023-03-21T15:37:07;8.50;;;3.17;;
70675;SDS011;59069;52.242;20.900;2023-03-21T15:39:38;7.93;;;3.22;;
70675;SDS011;59069;52.242;20.900;2023-03-21T15:42:49;8.33;;;3.47;;
70675;SDS011;59069;52.242;20.900;2023-03-21T15:44:56;7.18;;;2.83;;
70675;SDS011;59069;52.242;20.900;2023-03-21T15:48:08;7.95;;;3.55;;
70675;SDS011;59069;52.242;20.900;2023-03-21T15:50:33;8.82;;;3.33;;
70675;SDS011;59069;52.242;20.900;2023-03-21T15:53:02;8.57;;;3.43;;
70675;SDS011;59069;52.242;20.900;2023-03-21T15:58:22;8.50;;;3.35;;
70675;SDS011;59069;52.242;20.900;2023-03-21T16:00:50;7.90;;;3.30;;
70675;SDS011;59069;52.242;20.900;2023-03-21T16:08:35;9.43;;;3.60;;
70675;SDS011;59069;52.242;20.900;2023-03-21T16:11:05;10.02;;;4.10;;
70675;SDS011;59069;52.242;20.900;2023-03-21T16:13:49;7.90;;;3.63;;
70675;SDS011;59069;52.242;20.900;2023-03-21T16:16:17;9.90;;;4.18;;
70675;SDS011;59069;52.242;20.900;2023-03-21T16:18:51;9.50;;;3.77;;
70675;SDS011;59069;52.242;20.900;2023-03-21T16:21:18;8.90;;;3.60;;
70675;SDS011;59069;52.242;20.900;2023-03-21T16:23:46;8.02;;;3.78;;
70675;SDS011;59069;52.242;20.900;2023-03-21T16:26:16;9.88;;;3.88;;
70675;SDS011;59069;52.242;20.900;2023-03-21T16:28:44;10.23;;;4.57;;
70675;SDS011;59069;52.242;20.900;2023-03-21T16:31:23;10.53;;;4.47;;
70675;SDS011;59069;52.242;20.900;2023-03-21T16:33:50;9.23;;;4.47;;
70675;SDS011;59069;52.242;20.900;2023-03-21T16:38:44;10.23;;;4.20;;